sensor_id;sensor_type;location;lat;lon;timestamp;P1;durP1;ratioP1;P2;durP2;ratioP2
30010;SDS011;16851;53.564;8.112;2023-03-03T00:00:27;279.07;;;28.83;;
30010;SDS011;16851;53.564;8.112;2023-03-03T00:05:31;164.33;;;27.20;;
30010;SDS011;16851;53.564;8.112;2023-03-03T00:10:36;208.57;;;30.43;;
30010;SDS011;16851;53.564;8.112;2023-03-03T00:15:38;217.83;;;30.40;;
30010;SDS011;16851;53.564;8.112;2023-03-03T00:20:40;248.97;;;27.33;;
30010;SDS011;16851;53.564;8.112;2023-03-03T00:25:43;383.87;;;37.00;;
30010;SDS011;16851;53.564;8.112;2023-03-03T00:30:46;324.80;;;33.30;;
30010;SDS011;16851;53.564;8.112;2023-03-03T00:35:47;425.13;;;33.40;;
30010;SDS011;16851;53.564;8.112;2023-03-03T00:40:52;266.13;;;27.87;;
30010;SDS011;16851;53.564;8.112;2023-03-03T00:45:58;309.20;;;27.10;;
30010;SDS011;16851;53.564;8.112;2023-03-03T00:51:01;357.17;;;29.47;;
30010;SDS011;16851;53.564;8.112;2023-03-03T00:56:08;319.87;;;28.33;;
30010;SDS011;16851;53.564;8.112;2023-03-03T01:01:10;234.53;;;23.50;;
30010;SDS011;16851;53.564;8.112;2023-03-03T01:06:17;286.73;;;27.20;;
30010;SDS011;16851;53.564;8.112;2023-03-03T01:11:25;443.27;;;31.13;;
30010;SDS011;16851;53.564;8.112;2023-03-03T01:16:29;290.33;;;20.37;;
30010;SDS011;16851;53.564;8.112;2023-03-03T01:21:35;224.43;;;22.03;;
30010;SDS011;16851;53.564;8.112;2023-03-03T01:26:37;127.67;;;17.87;;
30010;SDS011;16851;53.564;8.112;2023-03-03T01:31:38;157.83;;;18.83;;
30010;SDS011;16851;53.564;8.112;2023-03-03T01:36:40;205.23;;;21.33;;
30010;SDS011;16851;53.564;8.112;2023-03-03T01:41:42;111.47;;;17.67;;
30010;SDS011;16851;53.564;8.112;2023-03-03T01:46:53;262.57;;;24.07;;
30010;SDS011;16851;53.564;8.112;2023-03-03T01:51:57;117.83;;;17.60;;
30010;SDS011;16851;53.564;8.112;2023-03-03T01:57:02;97.87;;;18.70;;
30010;SDS011;16851;53.564;8.112;2023-03-03T02:02:11;83.43;;;18.93;;
30010;SDS011;16851;53.564;8.112;2023-03-03T02:07:14;86.60;;;21.80;;
30010;SDS011;16851;53.564;8.112;2023-03-03T02:12:17;63.67;;;18.43;;
30010;SDS011;16851;53.564;8.112;2023-03-03T02:17:23;71.80;;;19.53;;
30010;SDS011;16851;53.564;8.112;2023-03-03T02:22:38;43.93;;;16.43;;
30010;SDS011;16851;53.564;8.112;2023-03-03T02:27:41;46.43;;;17.80;;
30010;SDS011;16851;53.564;8.112;2023-03-03T02:32:45;178.47;;;23.27;;
30010;SDS011;16851;53.564;8.112;2023-03-03T02:37:47;224.87;;;29.57;;
30010;SDS011;16851;53.564;8.112;2023-03-03T02:42:49;158.73;;;23.77;;
30010;SDS011;16851;53.564;8.112;2023-03-03T02:47:55;77.67;;;17.80;;
30010;SDS011;16851;53.564;8.112;2023-03-03T02:52:59;38.37;;;14.87;;
30010;SDS011;16851;53.564;8.112;2023-03-03T02:58:03;52.07;;;15.40;;
30010;SDS011;16851;53.564;8.112;2023-03-03T03:03:05;34.40;;;13.40;;
30010;SDS011;16851;53.564;8.112;2023-03-03T03:08:08;34.97;;;13.77;;
30010;SDS011;16851;53.564;8.112;2023-03-03T03:13:10;68.27;;;18.37;;
30010;SDS011;16851;53.564;8.112;2023-03-03T03:18:16;55.77;;;15.83;;
30010;SDS011;16851;53.564;8.112;2023-03-03T03:23:19;27.90;;;13.77;;
30010;SDS011;16851;53.564;8.112;2023-03-03T03:28:23;30.43;;;14.23;;
30010;SDS011;16851;53.564;8.112;2023-03-03T03:33:25;54.13;;;18.50;;
30010;SDS011;16851;53.564;8.112;2023-03-03T03:38:30;36.00;;;14.80;;
30010;SDS011;16851;53.564;8.112;2023-03-03T03:43:32;28.43;;;14.57;;
30010;SDS011;16851;53.564;8.112;2023-03-03T03:48:36;32.07;;;14.37;;
30010;SDS011;16851;53.564;8.112;2023-03-03T03:53:42;29.93;;;13.47;;
30010;SDS011;16851;53.564;8.112;2023-03-03T03:58:44;31.23;;;14.63;;
30010;SDS011;16851;53.564;8.112;2023-03-03T04:03:53;36.50;;;14.37;;
30010;SDS011;16851;53.564;8.112;2023-03-03T04:09:00;28.87;;;13.47;;
30010;SDS011;16851;53.564;8.112;2023-03-03T04:14:03;42.43;;;15.90;;
30010;SDS011;16851;53.564;8.112;2023-03-03T04:19:08;35.03;;;13.37;;
30010;SDS011;16851;53.564;8.112;2023-03-03T04:24:12;32.13;;;13.63;;
30010;SDS011;16851;53.564;8.112;2023-03-03T04:29:14;38.43;;;15.37;;
30010;SDS011;16851;53.564;8.112;2023-03-03T04:34:17;29.57;;;13.53;;
30010;SDS011;16851;53.564;8.112;2023-03-03T04:39:21;24.43;;;13.50;;
30010;SDS011;16851;53.564;8.112;2023-03-03T04:44:26;38.77;;;15.87;;
30010;SDS011;16851;53.564;8.112;2023-03-03T04:49:32;40.73;;;15.80;;
30010;SDS011;16851;53.564;8.112;2023-03-03T04:54:37;33.43;;;13.93;;
30010;SDS011;16851;53.564;8.112;2023-03-03T04:59:41;29.33;;;14.30;;
30010;SDS011;16851;53.564;8.112;2023-03-03T05:04:43;28.07;;;13.03;;
30010;SDS011;16851;53.564;8.112;2023-03-03T05:09:45;46.47;;;16.70;;
30010;SDS011;16851;53.564;8.112;2023-03-03T05:14:49;31.50;;;13.93;;
30010;SDS011;16851;53.564;8.112;2023-03-03T05:19:50;45.27;;;15.03;;
30010;SDS011;16851;53.564;8.112;2023-03-03T05:24:57;22.80;;;13.10;;
30010;SDS011;16851;53.564;8.112;2023-03-03T05:30:02;45.40;;;18.10;;
30010;SDS011;16851;53.564;8.112;2023-03-03T05:35:04;42.90;;;17.03;;
30010;SDS011;16851;53.564;8.112;2023-03-03T05:40:06;33.37;;;14.60;;
30010;SDS011;16851;53.564;8.112;2023-03-03T05:45:11;30.33;;;15.17;;
30010;SDS011;16851;53.564;8.112;2023-03-03T05:50:16;35.00;;;15.23;;
30010;SDS011;16851;53.564;8.112;2023-03-03T05:55:20;37.23;;;16.20;;
30010;SDS011;16851;53.564;8.112;2023-03-03T06:00:22;52.27;;;19.17;;
30010;SDS011;16851;53.564;8.112;2023-03-03T06:05:26;33.20;;;16.30;;
30010;SDS011;16851;53.564;8.112;2023-03-03T06:10:32;40.50;;;16.57;;
30010;SDS011;16851;53.564;8.112;2023-03-03T06:15:38;42.10;;;18.07;;
30010;SDS011;16851;53.564;8.112;2023-03-03T06:20:42;65.60;;;20.80;;
30010;SDS011;16851;53.564;8.112;2023-03-03T06:25:44;189.63;;;22.33;;
30010;SDS011;16851;53.564;8.112;2023-03-03T06:30:48;168.97;;;22.63;;
30010;SDS011;16851;53.564;8.112;2023-03-03T06:35:54;142.47;;;19.73;;
30010;SDS011;16851;53.564;8.112;2023-03-03T06:40:56;186.40;;;22.63;;
30010;SDS011;16851;53.564;8.112;2023-03-03T06:45:58;136.30;;;21.07;;
30010;SDS011;16851;53.564;8.112;2023-03-03T06:51:04;88.13;;;14.60;;
30010;SDS011;16851;53.564;8.112;2023-03-03T06:56:25;130.30;;;20.37;;
30010;SDS011;16851;53.564;8.112;2023-03-03T07:01:34;185.50;;;21.97;;
30010;SDS011;16851;53.564;8.112;2023-03-03T07:06:41;117.90;;;20.07;;
30010;SDS011;16851;53.564;8.112;2023-03-03T07:11:43;70.67;;;17.33;;
30010;SDS011;16851;53.564;8.112;2023-03-03T07:16:50;49.47;;;18.27;;
30010;SDS011;16851;53.564;8.112;2023-03-03T07:21:55;71.23;;;19.97;;
30010;SDS011;16851;53.564;8.112;2023-03-03T07:27:05;39.20;;;16.70;;
30010;SDS011;16851;53.564;8.112;2023-03-03T07:37:30;38.60;;;15.30;;
30010;SDS011;16851;53.564;8.112;2023-03-03T07:42:41;29.57;;;14.43;;
30010;SDS011;16851;53.564;8.112;2023-03-03T07:47:56;38.83;;;17.97;;
30010;SDS011;16851;53.564;8.112;2023-03-03T07:53:26;33.30;;;15.70;;
30010;SDS011;16851;53.564;8.112;2023-03-03T07:58:38;26.20;;;13.17;;
30010;SDS011;16851;53.564;8.112;2023-03-03T08:03:41;27.23;;;14.73;;
30010;SDS011;16851;53.564;8.112;2023-03-03T08:08:47;28.13;;;14.13;;
30010;SDS011;16851;53.564;8.112;2023-03-03T08:13:53;22.57;;;12.87;;
30010;SDS011;16851;53.564;8.112;2023-03-03T08:19:04;30.73;;;12.83;;
30010;SDS011;16851;53.564;8.112;2023-03-03T08:24:08;19.67;;;11.27;;
30010;SDS011;16851;53.564;8.112;2023-03-03T08:29:16;34.20;;;13.63;;
30010;SDS011;16851;53.564;8.112;2023-03-03T08:34:21;23.53;;;12.00;;
30010;SDS011;16851;53.564;8.112;2023-03-03T08:39:22;18.83;;;10.40;;
30010;SDS011;16851;53.564;8.112;2023-03-03T08:44:25;16.87;;;9.93;;
30010;SDS011;16851;53.564;8.112;2023-03-03T08:49:26;17.67;;;9.90;;
30010;SDS011;16851;53.564;8.112;2023-03-03T08:54:28;21.80;;;9.73;;
30010;SDS011;16851;53.564;8.112;2023-03-03T08:59:31;22.43;;;10.03;;
30010;SDS011;16851;53.564;8.112;2023-03-03T09:04:40;16.10;;;9.07;;
30010;SDS011;16851;53.564;8.112;2023-03-03T09:09:42;16.47;;;8.80;;
30010;SDS011;16851;53.564;8.112;2023-03-03T09:14:43;15.43;;;7.80;;
30010;SDS011;16851;53.564;8.112;2023-03-03T09:19:45;13.57;;;7.57;;
30010;SDS011;16851;53.564;8.112;2023-03-03T09:24:51;16.53;;;7.77;;
30010;SDS011;16851;53.564;8.112;2023-03-03T09:30:26;12.43;;;6.40;;
30010;SDS011;16851;53.564;8.112;2023-03-03T09:35:36;12.20;;;6.47;;
30010;SDS011;16851;53.564;8.112;2023-03-03T09:46:18;11.50;;;6.17;;
30010;SDS011;16851;53.564;8.112;2023-03-03T09:57:13;10.43;;;4.83;;
30010;SDS011;16851;53.564;8.112;2023-03-03T10:02:50;7.27;;;4.40;;
30010;SDS011;16851;53.564;8.112;2023-03-03T10:18:41;16.20;;;7.03;;
30010;SDS011;16851;53.564;8.112;2023-03-03T10:34:42;8.27;;;4.20;;
30010;SDS011;16851;53.564;8.112;2023-03-03T11:33:14;9.63;;;2.63;;
30010;SDS011;16851;53.564;8.112;2023-03-03T11:43:53;7.87;;;2.20;;
30010;SDS011;16851;53.564;8.112;2023-03-03T12:05:14;7.17;;;2.43;;
30010;SDS011;16851;53.564;8.112;2023-03-03T12:10:41;7.20;;;2.37;;
30010;SDS011;16851;53.564;8.112;2023-03-03T12:16:11;8.30;;;2.20;;
30010;SDS011;16851;53.564;8.112;2023-03-03T12:32:14;10.23;;;2.80;;
30010;SDS011;16851;53.564;8.112;2023-03-03T12:37:25;9.17;;;1.90;;
30010;SDS011;16851;53.564;8.112;2023-03-03T12:48:16;10.70;;;2.37;;
30010;SDS011;16851;53.564;8.112;2023-03-03T12:54:11;6.60;;;1.93;;
30010;SDS011;16851;53.564;8.112;2023-03-03T12:59:02;7.67;;;1.87;;
30010;SDS011;16851;53.564;8.112;2023-03-03T13:09:18;10.63;;;2.37;;
30010;SDS011;16851;53.564;8.112;2023-03-03T13:14:37;11.20;;;1.60;;
30010;SDS011;16851;53.564;8.112;2023-03-03T13:20:00;14.30;;;2.10;;
30010;SDS011;16851;53.564;8.112;2023-03-03T13:30:41;12.03;;;2.37;;
30010;SDS011;16851;53.564;8.112;2023-03-03T13:35:52;15.80;;;2.10;;
30010;SDS011;16851;53.564;8.112;2023-03-03T13:40:59;9.20;;;2.00;;
30010;SDS011;16851;53.564;8.112;2023-03-03T14:06:55;6.97;;;2.10;;
30010;SDS011;16851;53.564;8.112;2023-03-03T14:12:25;12.73;;;2.23;;
30010;SDS011;16851;53.564;8.112;2023-03-03T14:28:37;20.90;;;3.53;;
30010;SDS011;16851;53.564;8.112;2023-03-03T14:33:39;21.17;;;3.57;;
30010;SDS011;16851;53.564;8.112;2023-03-03T14:38:48;18.70;;;3.60;;
30010;SDS011;16851;53.564;8.112;2023-03-03T14:44:36;19.80;;;3.87;;
30010;SDS011;16851;53.564;8.112;2023-03-03T14:49:35;17.80;;;3.27;;
30010;SDS011;16851;53.564;8.112;2023-03-03T14:54:44;24.57;;;3.40;;
30010;SDS011;16851;53.564;8.112;2023-03-03T15:00:05;20.33;;;3.97;;
30010;SDS011;16851;53.564;8.112;2023-03-03T15:05:32;25.47;;;4.50;;
30010;SDS011;16851;53.564;8.112;2023-03-03T15:10:38;24.33;;;4.10;;
30010;SDS011;16851;53.564;8.112;2023-03-03T15:15:48;32.23;;;4.20;;
30010;SDS011;16851;53.564;8.112;2023-03-03T15:21:04;30.20;;;4.00;;
30010;SDS011;16851;53.564;8.112;2023-03-03T15:36:55;27.83;;;4.40;;
30010;SDS011;16851;53.564;8.112;2023-03-03T15:42:10;33.27;;;4.90;;
30010;SDS011;16851;53.564;8.112;2023-03-03T16:03:42;32.07;;;4.23;;
30010;SDS011;16851;53.564;8.112;2023-03-03T16:14:23;29.97;;;4.43;;
30010;SDS011;16851;53.564;8.112;2023-03-03T16:19:48;26.87;;;5.07;;
30010;SDS011;16851;53.564;8.112;2023-03-03T16:25:12;29.20;;;4.17;;
30010;SDS011;16851;53.564;8.112;2023-03-03T16:35:25;31.63;;;4.70;;
30010;SDS011;16851;53.564;8.112;2023-03-03T16:40:51;27.07;;;4.53;;
30010;SDS011;16851;53.564;8.112;2023-03-03T16:46:01;29.93;;;4.60;;
30010;SDS011;16851;53.564;8.112;2023-03-03T17:39:37;39.67;;;5.47;;
30010;SDS011;16851;53.564;8.112;2023-03-03T17:50:06;32.67;;;5.90;;
30010;SDS011;16851;53.564;8.112;2023-03-03T18:16:32;33.10;;;5.33;;
30010;SDS011;16851;53.564;8.112;2023-03-03T18:27:34;40.27;;;6.17;;
30010;SDS011;16851;53.564;8.112;2023-03-03T18:37:42;42.83;;;6.27;;
30010;SDS011;16851;53.564;8.112;2023-03-03T18:42:49;34.10;;;5.00;;
30010;SDS011;16851;53.564;8.112;2023-03-03T18:58:38;39.77;;;5.67;;
30010;SDS011;16851;53.564;8.112;2023-03-03T19:08:51;36.30;;;5.23;;
30010;SDS011;16851;53.564;8.112;2023-03-03T19:14:17;47.73;;;6.07;;
30010;SDS011;16851;53.564;8.112;2023-03-03T19:19:29;31.07;;;5.57;;
30010;SDS011;16851;53.564;8.112;2023-03-03T19:24:34;31.03;;;5.30;;
30010;SDS011;16851;53.564;8.112;2023-03-03T19:35:03;46.30;;;6.57;;
30010;SDS011;16851;53.564;8.112;2023-03-03T19:56:34;39.87;;;6.07;;
30010;SDS011;16851;53.564;8.112;2023-03-03T20:01:46;30.97;;;5.00;;
30010;SDS011;16851;53.564;8.112;2023-03-03T20:43:58;37.17;;;4.73;;
30010;SDS011;16851;53.564;8.112;2023-03-03T21:10:13;28.53;;;4.17;;
30010;SDS011;16851;53.564;8.112;2023-03-03T21:15:23;31.47;;;4.80;;
30010;SDS011;16851;53.564;8.112;2023-03-03T21:20:34;21.17;;;3.83;;
30010;SDS011;16851;53.564;8.112;2023-03-03T21:31:04;30.87;;;4.40;;
30010;SDS011;16851;53.564;8.112;2023-03-03T21:36:23;33.30;;;5.50;;
30010;SDS011;16851;53.564;8.112;2023-03-03T21:41:57;33.73;;;3.97;;
30010;SDS011;16851;53.564;8.112;2023-03-03T21:47:05;29.77;;;4.23;;
30010;SDS011;16851;53.564;8.112;2023-03-03T21:52:09;33.57;;;4.27;;
30010;SDS011;16851;53.564;8.112;2023-03-03T21:57:17;35.70;;;4.43;;
30010;SDS011;16851;53.564;8.112;2023-03-03T22:02:25;28.70;;;4.07;;
30010;SDS011;16851;53.564;8.112;2023-03-03T22:07:27;34.90;;;3.97;;
30010;SDS011;16851;53.564;8.112;2023-03-03T22:12:29;37.23;;;5.30;;
30010;SDS011;16851;53.564;8.112;2023-03-03T22:17:30;33.67;;;4.63;;
30010;SDS011;16851;53.564;8.112;2023-03-03T22:22:34;24.80;;;4.20;;
30010;SDS011;16851;53.564;8.112;2023-03-03T22:27:36;29.37;;;3.70;;
30010;SDS011;16851;53.564;8.112;2023-03-03T22:32:38;31.20;;;4.07;;
30010;SDS011;16851;53.564;8.112;2023-03-03T22:37:39;32.60;;;3.60;;
30010;SDS011;16851;53.564;8.112;2023-03-03T22:42:43;25.50;;;3.83;;
30010;SDS011;16851;53.564;8.112;2023-03-03T22:47:47;29.50;;;4.53;;
30010;SDS011;16851;53.564;8.112;2023-03-03T22:52:49;27.17;;;3.60;;
30010;SDS011;16851;53.564;8.112;2023-03-03T22:57:53;33.40;;;3.70;;
30010;SDS011;16851;53.564;8.112;2023-03-03T23:02:55;29.93;;;4.23;;
30010;SDS011;16851;53.564;8.112;2023-03-03T23:07:57;29.73;;;3.60;;
30010;SDS011;16851;53.564;8.112;2023-03-03T23:12:58;28.33;;;3.70;;
30010;SDS011;16851;53.564;8.112;2023-03-03T23:18:05;29.67;;;3.97;;
30010;SDS011;16851;53.564;8.112;2023-03-03T23:23:06;33.50;;;3.53;;
30010;SDS011;16851;53.564;8.112;2023-03-03T23:28:10;24.43;;;4.27;;
30010;SDS011;16851;53.564;8.112;2023-03-03T23:33:15;24.30;;;4.00;;
30010;SDS011;16851;53.564;8.112;2023-03-03T23:38:17;21.80;;;3.00;;
30010;SDS011;16851;53.564;8.112;2023-03-03T23:43:19;23.87;;;3.17;;
30010;SDS011;16851;53.564;8.112;2023-03-03T23:48:20;24.40;;;3.57;;
30010;SDS011;16851;53.564;8.112;2023-03-03T23:53:27;20.80;;;2.83;;
30010;SDS011;16851;53.564;8.112;2023-03-03T23:58:29;16.53;;;2.67;;
